Time;durP1;ratioP1;P1;durP2;ratioP2;P2;SDS_P1;SDS_P2;PMS_P1;PMS_P2;Temp;Humidity;BMP_temperature;BMP_pressure;BME280_temperature;BME280_humidity;BME280_pressure;Samples;Min_cycle;Max_cycle;Signal;HPM_P1;HPM_P2
2023/03/06 06:01:19;;;;;;;;;31.25;24.00;;;;;8.36;56.21;62632.16;5564501;23;45883;-92
2023/03/06 06:03:45;;;;;;;;;27.33;25.33;;;;;8.35;55.83;62738.34;4979486;28;46138;-90
2023/03/06 06:06:14;;;;;;;;;27.25;25.00;;;;;8.34;56.24;62640.47;4979551;28;45402;-92
2023/03/06 06:08:40;;;;;;;;;26.75;24.50;;;;;7.96;55.80;62778.25;4974231;28;45373;-90
2023/03/06 06:11:07;;;;;;;;;27.75;24.75;;;;;8.07;55.70;62692.50;4960557;28;45569;-90
2023/03/06 06:13:32;;;;;;;;;24.75;23.50;;;;;8.30;55.80;62709.22;4976396;28;46292;-93
2023/03/06 06:15:57;;;;;;;;;27.00;23.50;;;;;8.28;56.16;62775.94;4972280;28;45436;-92
2023/03/06 06:18:23;;;;;;;;;24.67;18.67;;;;;7.70;55.90;62687.84;4978531;28;45349;-91
2023/03/06 06:20:48;;;;;;;;;29.25;25.75;;;;;8.08;56.48;62686.25;4979519;28;45605;-90
2023/03/06 06:23:14;;;;;;;;;29.00;21.50;;;;;7.98;56.28;62575.97;4979219;28;46301;-96
2023/03/06 06:25:39;;;;;;;;;27.25;25.75;;;;;8.00;56.27;62575.50;4979251;28;45384;-91
2023/03/06 06:28:04;;;;;;;;;23.00;18.75;;;;;8.25;56.35;62610.16;4978560;28;45915;-93
2023/03/06 06:30:31;;;;;;;;;28.25;22.50;;;;;8.10;56.24;62554.34;4980317;28;45337;-92
2023/03/06 06:32:57;;;;;;;;;24.75;24.50;;;;;8.27;56.20;62454.00;4958779;28;46325;-92
2023/03/06 06:35:22;;;;;;;;;28.00;24.25;;;;;7.77;56.54;62472.09;4969103;28;45505;-95
2023/03/06 06:37:48;;;;;;;;;30.50;25.00;;;;;8.30;56.39;62459.88;4975962;28;45544;-92
2023/03/06 06:40:13;;;;;;;;;25.00;22.00;;;;;8.34;56.23;62363.75;4979771;28;45422;-93
2023/03/06 06:42:39;;;;;;;;;32.00;24.75;;;;;7.91;56.41;62241.81;4978247;28;46270;-94
2023/03/06 06:45:05;;;;;;;;;25.25;24.75;;;;;8.30;56.66;62206.84;4965622;28;45862;-96
2023/03/06 06:47:32;;;;;;;;;26.00;23.75;;;;;7.49;56.64;62105.34;4979238;28;45297;-93
2023/03/06 06:49:58;;;;;;;;;28.50;25.00;;;;;7.60;56.20;62133.06;4972014;28;45894;-94
2023/03/06 06:52:24;;;;;;;;;26.75;23.25;;;;;8.40;56.57;62226.16;4973818;28;46400;-96
2023/03/06 06:54:50;;;;;;;;;32.75;26.75;;;;;7.94;56.70;62166.25;4993889;23;45491;-88
2023/03/06 06:57:16;;;;;;;;;23.50;19.25;;;;;7.93;56.70;62213.00;4966141;28;45483;-89
2023/03/06 06:59:41;;;;;;;;;24.25;21.00;;;;;8.34;56.55;62248.03;4956698;28;45500;-88
2023/03/06 07:02:09;;;;;;;;;26.00;24.25;;;;;6.99;56.52;61937.31;4954188;28;47321;-85
2023/03/06 07:04:34;;;;;;;;;28.25;25.75;;;;;7.75;56.72;62119.88;4975496;28;45451;-86
2023/03/06 07:07:00;;;;;;;;;21.00;21.00;;;;;8.27;56.80;62138.41;4979465;28;45383;-92
2023/03/06 07:09:25;;;;;;;;;24.25;21.00;;;;;7.57;56.79;62098.81;4946661;28;45475;-86
2023/03/06 07:11:50;;;;;;;;;33.50;28.50;;;;;7.79;57.17;61904.03;4972354;28;47803;-87
2023/03/06 07:14:16;;;;;;;;;25.75;23.50;;;;;7.70;57.38;61781.34;4962781;28;45476;-85
2023/03/06 07:16:41;;;;;;;;;29.25;23.00;;;;;7.86;57.23;61679.28;4977862;28;45380;-87
2023/03/06 07:19:07;;;;;;;;;26.00;22.50;;;;;8.22;56.97;61915.25;4978516;28;45832;-91
2023/03/06 07:21:33;;;;;;;;;31.00;24.25;;;;;8.22;57.54;61707.00;4969036;28;46271;-93
2023/03/06 07:23:58;;;;;;;;;27.00;23.25;;;;;7.37;57.39;61667.50;4956537;28;45949;-92
2023/03/06 07:26:25;;;;;;;;;31.00;25.00;;;;;8.10;57.59;61592.09;4968184;28;45541;-92
2023/03/06 07:28:52;;;;;;;;;25.00;23.50;;;;;7.87;57.75;61105.44;4958440;28;45361;-91
2023/03/06 07:31:22;;;;;;;;;27.75;25.50;;;;;6.78;57.54;61285.03;4977516;28;45443;-95
2023/03/06 07:33:49;;;;;;;;;27.00;22.00;;;;;8.23;57.64;61324.19;4967944;28;45342;-94
2023/03/06 07:36:15;;;;;;;;;27.00;21.75;;;;;7.07;57.33;61302.44;4970664;28;45311;-94
2023/03/06 07:38:40;;;;;;;;;22.25;20.75;;;;;7.68;57.41;61377.25;4946024;28;45691;-90
2023/03/06 07:41:12;;;;;;;;;28.25;23.50;;;;;7.93;56.89;61429.78;4973990;28;46174;-91
2023/03/06 07:43:40;;;;;;;;;19.50;18.75;;;;;7.97;57.31;61467.72;4959725;28;45364;-90
2023/03/06 07:46:05;;;;;;;;;17.50;15.75;;;;;7.87;56.88;61556.84;4949620;28;45681;-93
2023/03/06 07:48:31;;;;;;;;;11.75;11.75;;;;;8.31;57.17;61582.59;4964039;28;45639;-94
2023/03/06 07:50:59;;;;;;;;;27.75;22.00;;;;;8.32;57.04;61501.59;4964324;28;47240;-93
2023/03/06 07:53:25;;;;;;;;;23.50;19.75;;;;;8.13;57.18;61377.13;4952517;28;45589;-92
2023/03/06 07:55:51;;;;;;;;;27.50;23.00;;;;;8.34;57.63;61278.13;4978278;28;45370;-93
2023/03/06 07:58:16;;;;;;;;;29.75;24.75;;;;;8.37;57.21;61094.63;4977309;28;45579;-92
2023/03/06 08:00:41;;;;;;;;;17.25;14.75;;;;;8.39;57.40;60944.25;4957019;28;47280;-89
2023/03/06 08:03:10;;;;;;;;;24.00;21.75;;;;;8.06;57.15;61035.81;4979473;28;45455;-89
2023/03/06 08:05:35;;;;;;;;;25.25;21.50;;;;;8.27;57.17;61167.56;4954420;28;45298;-92
2023/03/06 08:08:00;;;;;;;;;27.25;19.00;;;;;8.11;57.19;61227.78;4952025;28;45475;-92
2023/03/06 08:10:27;;;;;;;;;22.25;22.00;;;;;8.45;57.11;61197.88;4960871;28;47022;-91
2023/03/06 08:12:52;;;;;;;;;24.00;19.00;;;;;7.91;56.98;61062.38;4961207;28;45341;-89
2023/03/06 08:15:18;;;;;;;;;20.50;19.75;;;;;7.72;57.19;61008.50;4976092;28;45640;-92
2023/03/06 08:17:43;;;;;;;;;22.75;20.00;;;;;8.22;57.05;60992.41;4946063;28;45606;-92
2023/03/06 08:20:10;;;;;;;;;22.50;20.25;;;;;8.14;56.79;60978.09;4958126;28;48364;-91
2023/03/06 08:22:36;;;;;;;;;18.50;15.50;;;;;8.42;57.45;61010.03;4966586;28;45547;-92
2023/03/06 08:25:03;;;;;;;;;22.75;19.75;;;;;8.01;57.01;60862.84;4968378;28;45598;-92
2023/03/06 08:27:31;;;;;;;;;16.75;15.50;;;;;8.21;56.80;60922.97;4977144;28;45351;-93
2023/03/06 08:29:56;;;;;;;;;23.25;20.50;;;;;7.94;56.78;60865.91;4959413;28;48625;-92
2023/03/06 08:32:22;;;;;;;;;28.25;24.25;;;;;8.68;56.88;60771.50;4957844;28;45820;-92
2023/03/06 08:34:47;;;;;;;;;29.00;24.50;;;;;8.06;57.11;60620.06;4965920;28;45682;-91
2023/03/06 08:37:13;;;;;;;;;27.75;27.75;;;;;7.73;57.11;60697.00;4971856;28;45285;-91
2023/03/06 08:39:38;;;;;;;;;22.50;20.50;;;;;8.40;56.74;60655.53;4945769;28;48405;-91
2023/03/06 08:42:03;;;;;;;;;24.75;22.00;;;;;8.83;56.46;60679.03;4973695;28;45532;-86
2023/03/06 08:44:29;;;;;;;;;29.50;25.00;;;;;8.81;56.61;60613.75;4977440;28;45451;-87
2023/03/06 08:46:54;;;;;;;;;42.75;33.50;;;;;8.55;56.78;60352.69;4961920;28;45749;-90
2023/03/06 08:49:19;;;;;;;;;28.33;23.00;;;;;8.45;56.20;60382.66;4973934;28;47398;-91
2023/03/06 08:51:45;;;;;;;;;21.75;19.75;;;;;8.93;56.46;60392.25;4975996;28;45534;-91
2023/03/06 08:54:11;;;;;;;;;25.25;23.25;;;;;9.13;56.86;60373.34;4972038;28;45586;-93
2023/03/06 08:56:37;;;;;;;;;26.50;23.00;;;;;8.29;56.40;60212.75;4977107;28;45339;-93
2023/03/06 08:59:04;;;;;;;;;25.33;21.67;;;;;8.69;56.22;60169.66;4968645;28;48006;-93
2023/03/06 09:01:33;;;;;;;;;22.00;20.67;;;;;9.14;55.66;60236.97;4959559;28;45435;-92
2023/03/06 09:04:01;;;;;;;;;24.25;22.50;;;;;9.41;55.97;60238.50;4959075;28;45492;-93
2023/03/06 09:06:30;;;;;;;;;30.75;21.50;;;;;9.48;55.85;60135.78;4960790;28;45627;-93
2023/03/06 09:08:56;;;;;;;;;24.67;19.00;;;;;9.15;55.45;60098.50;4957350;28;47170;-93
2023/03/06 09:11:24;;;;;;;;;24.75;22.00;;;;;9.66;55.36;59967.13;4976746;28;45348;-93
2023/03/06 09:13:49;;;;;;;;;23.00;19.50;;;;;9.81;55.30;59800.50;4965580;28;45397;-93
2023/03/06 09:16:15;;;;;;;;;23.00;18.00;;;;;9.93;55.27;59802.50;4961325;28;45516;-93
2023/03/06 09:18:40;;;;;;;;;19.33;19.33;;;;;9.61;54.51;59642.66;4959833;28;47575;-93
2023/03/06 09:21:06;;;;;;;;;19.33;18.00;;;;;9.89;54.22;59745.09;4976775;28;45594;-93
2023/03/06 09:23:32;;;;;;;;;28.00;22.33;;;;;10.25;54.30;59710.41;4976993;28;45373;-93
2023/03/06 09:25:59;;;;;;;;;27.00;18.33;;;;;10.31;54.39;59769.94;4961032;28;45385;-94
2023/03/06 09:28:24;;;;;;;;;25.67;22.33;;;;;10.14;54.11;59845.00;4957000;28;48539;-93
2023/03/06 09:30:50;;;;;;;;;24.00;23.50;;;;;10.07;53.85;59766.00;4976833;28;46273;-91
2023/03/06 09:33:16;;;;;;;;;24.00;22.00;;;;;10.58;53.61;59894.69;4977055;28;45334;-93
2023/03/06 09:35:51;;;;;;;;;25.33;23.00;;;;;10.63;53.53;60018.13;4960829;28;45387;-90
2023/03/06 09:38:18;;;;;;;;;18.00;17.33;;;;;10.34;53.09;60252.53;4967903;28;47433;-93
2023/03/06 09:41:02;;;;;;;;;21.33;21.33;;;;;10.68;52.91;60161.09;4956883;28;45467;-93
2023/03/06 09:43:40;;;;;;;;;20.33;20.33;;;;;10.82;52.82;60050.72;4957169;28;45345;-93
2023/03/06 09:46:21;;;;;;;;;23.33;20.00;;;;;10.50;52.47;60285.19;4967745;28;45546;-93
2023/03/06 09:49:16;;;;;;;;;22.33;22.33;;;;;10.84;52.06;60251.28;4959407;28;48255;-92
2023/03/06 09:51:44;;;;;;;;;22.00;19.00;;;;;11.15;51.84;60391.09;4976530;28;45337;-92
2023/03/06 09:54:15;;;;;;;;;24.33;20.33;;;;;10.96;51.41;60791.41;4976392;28;45390;-93
2023/03/06 09:56:49;;;;;;;;;20.33;17.33;;;;;11.05;51.21;60713.25;4976612;28;45395;-93
2023/03/06 09:59:23;;;;;;;;;27.00;22.67;;;;;11.11;50.88;60772.44;4975036;28;47339;-93
2023/03/06 10:02:07;;;;;;;;;21.67;20.67;;;;;11.59;50.74;60875.66;4959748;28;45509;-93
2023/03/06 10:04:40;;;;;;;;;22.00;19.67;;;;;11.79;49.50;61316.75;4979289;28;45425;-90
2023/03/06 10:07:22;;;;;;;;;22.67;20.67;;;;;11.31;49.21;61495.91;4962853;28;45468;-91
2023/03/06 10:10:14;;;;;;;;;22.33;20.67;;;;;12.10;48.69;61422.34;4979831;28;46477;-91
2023/03/06 10:12:47;;;;;;;;;18.00;18.00;;;;;11.85;47.82;62105.47;4979872;28;45344;-91
2023/03/06 10:15:24;;;;;;;;;20.33;20.33;;;;;11.92;47.15;62554.84;4961419;28;45396;-91
2023/03/06 10:17:49;;;;;;;;;22.00;20.00;;;;;11.91;46.93;62174.91;4958754;28;45639;-91
2023/03/06 10:20:21;;;;;;;;;21.67;18.67;;;;;13.70;45.82;61611.16;4979287;28;46330;-91
2023/03/06 10:23:08;;;;;;;;;22.00;18.67;;;;;15.27;44.57;60291.66;4962127;28;46038;-91
2023/03/06 10:25:43;;;;;;;;;19.33;14.00;;;;;16.46;41.57;62164.22;4979670;28;45344;-91
2023/03/06 10:28:16;;;;;;;;;13.67;11.00;;;;;15.90;40.66;64155.34;4980070;28;45293;-89
2023/03/06 10:30:50;;;;;;;;;15.33;13.00;;;;;15.99;40.21;64911.88;4977155;28;45918;-89
2023/03/06 10:33:41;;;;;;;;;10.33;5.00;;;;;15.15;40.61;65514.19;4958254;28;45412;-88
2023/03/06 10:36:12;;;;;;;;;14.33;14.33;;;;;15.17;40.63;65886.41;4960024;28;45442;-90
2023/03/06 10:38:37;;;;;;;;;16.33;13.67;;;;;14.56;41.09;66073.75;4960275;28;45339;-90
2023/03/06 10:41:12;;;;;;;;;17.00;15.33;;;;;14.54;40.82;66369.31;4959618;28;46113;-90
2023/03/06 10:44:03;;;;;;;;;14.67;13.67;;;;;14.02;40.86;66341.91;4958673;28;45436;-90
2023/03/06 10:46:35;;;;;;;;;15.67;13.33;;;;;13.92;41.55;66440.50;4967121;28;45501;-89
2023/03/06 10:49:03;;;;;;;;;17.00;15.67;;;;;14.32;41.17;66520.00;4942563;28;45596;-90
2023/03/06 10:51:30;;;;;;;;;15.33;15.33;;;;;13.01;40.55;66534.28;4959556;28;46509;-91
2023/03/06 10:53:57;;;;;;;;;17.00;14.33;;;;;14.29;40.49;66664.84;4959439;28;45676;-91
2023/03/06 10:56:31;;;;;;;;;15.33;13.67;;;;;14.38;40.63;66725.19;4959611;28;45396;-90
2023/03/06 10:59:27;;;;;;;;;17.33;17.00;;;;;14.32;40.99;66740.66;4960022;28;45460;-91
2023/03/06 11:02:18;;;;;;;;;18.00;15.33;;;;;14.17;40.47;66813.69;4962608;28;47148;-90
2023/03/06 11:04:50;;;;;;;;;15.67;13.00;;;;;13.99;41.16;66827.94;4979044;28;45460;-90
2023/03/06 11:07:19;;;;;;;;;14.00;13.00;;;;;13.61;41.31;66864.75;4961597;28;45413;-90
2023/03/06 11:09:58;;;;;;;;;17.00;16.00;;;;;13.60;41.75;66922.03;4978105;28;45394;-90
2023/03/06 11:12:42;;;;;;;;;16.67;15.00;;;;;13.48;42.18;66887.44;4974026;28;45435;-91
2023/03/06 11:15:13;;;;;;;;;20.00;15.00;;;;;13.28;42.13;66965.69;4974909;28;45448;-90
2023/03/06 11:18:18;;;;;;;;;14.67;14.67;;;;;13.12;42.13;66994.84;4978760;28;45463;-91
2023/03/06 11:20:50;;;;;;;;;18.67;15.67;;;;;12.57;42.29;67022.84;4952866;28;45543;-91
2023/03/06 11:23:36;;;;;;;;;16.67;12.67;;;;;12.85;42.20;67068.09;4978744;28;45422;-91
2023/03/06 11:26:18;;;;;;;;;17.00;15.67;;;;;12.72;42.18;67121.34;4954169;28;46225;-91
2023/03/06 11:28:59;;;;;;;;;18.67;14.33;;;;;12.61;42.26;67106.44;4959332;28;45370;-91
2023/03/06 11:31:30;;;;;;;;;17.33;14.67;;;;;12.57;42.81;67049.34;4960550;28;45436;-95
2023/03/06 11:34:13;;;;;;;;;22.00;17.00;;;;;12.53;42.83;67060.03;4983885;28;45708;-93
2023/03/06 11:37:00;;;;;;;;;16.33;15.00;;;;;12.55;43.20;67001.34;4968224;28;45814;-93
2023/03/06 11:39:43;;;;;;;;;15.00;15.00;;;;;12.63;42.56;67064.28;4961735;28;45377;-93
2023/03/06 11:42:24;;;;;;;;;19.67;17.00;;;;;12.72;42.19;67060.34;4962027;28;45567;-94
2023/03/06 11:45:23;;;;;;;;;22.33;18.33;;;;;12.82;42.02;67053.97;4976713;28;47242;-92
2023/03/06 11:48:10;;;;;;;;;17.00;16.00;;;;;13.04;42.14;67004.72;4942458;28;45405;-92
2023/03/06 11:50:40;;;;;;;;;20.33;15.67;;;;;13.13;41.48;67006.59;4969253;28;45479;-94
2023/03/06 11:53:11;;;;;;;;;8.33;7.67;;;;;12.64;41.44;67019.78;4962269;28;45332;-92
2023/03/06 11:55:55;;;;;;;;;18.00;15.00;;;;;13.09;41.80;67078.94;4961120;28;48283;-92
2023/03/06 11:58:53;;;;;;;;;19.33;17.00;;;;;13.00;42.10;67068.47;4947284;28;45851;-92
2023/03/06 12:02:13;;;;;;;;;12.67;12.33;;;;;12.82;42.84;67019.50;4961374;28;45579;-92
2023/03/06 12:05:10;;;;;;;;;18.67;17.33;;;;;12.86;42.79;67026.22;4921343;28;45966;-93
2023/03/06 12:08:02;;;;;;;;;18.33;14.00;;;;;12.70;43.05;67084.53;4904088;28;47761;-92
2023/03/06 12:10:37;;;;;;;;;18.33;18.33;;;;;11.75;43.43;66905.38;4905247;28;45531;-94
2023/03/06 12:13:29;;;;;;;;;18.67;16.67;;;;;11.86;43.67;66987.03;4898489;28;45477;-93
2023/03/06 12:16:21;;;;;;;;;19.67;15.33;;;;;12.27;44.00;67062.13;4909236;28;45687;-94
2023/03/06 12:18:49;;;;;;;;;19.67;17.33;;;;;12.21;44.14;67031.91;4901736;28;47677;-94
2023/03/06 12:21:29;;;;;;;;;15.33;14.00;;;;;12.17;44.35;67022.50;4901747;28;45478;-94
2023/03/06 12:24:25;;;;;;;;;17.00;15.33;;;;;12.06;44.62;66980.00;4902206;28;45557;-93
2023/03/06 12:27:26;;;;;;;;;18.00;15.33;;;;;11.95;45.05;66978.97;4907988;28;45446;-93
2023/03/06 12:30:25;;;;;;;;;23.33;17.00;;;;;11.87;45.45;66910.78;4899402;28;48551;-93
2023/03/06 12:33:13;;;;;;;;;20.33;17.00;;;;;11.60;45.74;66896.50;4901637;28;45510;-93
2023/03/06 12:35:57;;;;;;;;;19.33;17.00;;;;;11.68;45.62;66839.00;4906202;28;45542;-92
2023/03/06 12:38:38;;;;;;;;;21.67;20.67;;;;;11.61;46.15;66816.19;4930969;28;45423;-92
2023/03/06 12:41:21;;;;;;;;;21.67;19.33;;;;;11.60;46.42;66790.59;4959325;28;47215;-93
2023/03/06 12:44:04;;;;;;;;;23.00;18.00;;;;;11.67;46.46;66711.34;4958999;28;45811;-92
2023/03/06 12:46:41;;;;;;;;;18.33;16.00;;;;;11.35;46.43;66659.56;4958155;28;46001;-93
2023/03/06 12:49:16;;;;;;;;;19.00;17.67;;;;;11.80;46.01;66673.47;4959299;28;45527;-93
2023/03/06 12:51:44;;;;;;;;;22.67;18.00;;;;;11.44;46.60;66508.00;4952866;28;47119;-93
2023/03/06 12:54:12;;;;;;;;;16.67;14.67;;;;;11.47;46.52;66540.00;4970809;28;45348;-93
2023/03/06 12:56:39;;;;;;;;;19.33;17.67;;;;;11.72;46.22;66576.25;4957379;28;45543;-92
2023/03/06 12:59:04;;;;;;;;;17.00;17.00;;;;;10.89;46.87;66419.19;4958617;28;45446;-93
2023/03/06 17:00:32;;;;;;;;;8.00;5.00;;;;;10.52;47.25;66168.91;5930247;23;46005;-90
2023/03/06 17:02:59;;;;;;;;;9.00;5.00;;;;;11.38;47.46;66147.09;4995984;28;45347;-90
2023/03/06 17:05:24;;;;;;;;;8.33;6.00;;;;;11.53;47.16;66197.59;4995446;28;45684;-89
2023/03/06 17:07:58;;;;;;;;;8.00;7.00;;;;;11.11;47.31;66235.66;4992450;28;45808;-87
2023/03/06 17:10:26;;;;;;;;;6.00;6.00;;;;;11.30;47.20;66184.94;4974025;28;48317;-88
2023/03/06 17:12:51;;;;;;;;;4.33;3.33;;;;;11.22;47.23;66290.06;4986435;28;45375;-92
2023/03/06 17:15:19;;;;;;;;;7.33;6.00;;;;;11.20;46.96;66253.94;5006179;28;45458;-91
2023/03/06 17:17:45;;;;;;;;;6.33;5.67;;;;;11.51;46.85;66269.38;5002730;28;45402;-89
2023/03/06 17:20:11;;;;;;;;;4.00;4.00;;;;;11.18;47.08;66249.00;5004777;28;45452;-95
2023/03/06 17:22:37;;;;;;;;;4.33;4.33;;;;;11.48;46.89;66289.75;5001662;28;45436;-96
2023/03/06 17:25:05;;;;;;;;;6.33;6.33;;;;;11.47;47.10;66354.75;5003901;28;45344;-95
2023/03/06 17:27:31;;;;;;;;;7.00;6.00;;;;;10.60;46.87;66301.72;5013685;23;45265;-87
2023/03/06 17:29:57;;;;;;;;;8.00;6.00;;;;;11.16;46.80;66318.09;4977860;28;48307;-87
2023/03/06 17:32:23;;;;;;;;;6.00;6.00;;;;;11.18;46.98;66375.97;4995153;28;45309;-87
2023/03/06 17:34:48;;;;;;;;;4.00;4.00;;;;;11.23;46.96;66306.50;4987431;28;45374;-87
2023/03/06 17:37:14;;;;;;;;;6.33;6.00;;;;;11.02;46.89;66314.63;4973198;28;45478;-87
2023/03/06 17:39:39;;;;;;;;;8.00;8.00;;;;;11.16;46.88;66402.16;4992537;28;47620;-86
2023/03/06 17:42:05;;;;;;;;;6.67;6.00;;;;;11.10;46.83;66395.25;4993326;28;45333;-87
2023/03/06 17:44:31;;;;;;;;;6.00;6.00;;;;;10.82;46.71;66429.63;4995196;28;45418;-85
2023/03/06 17:46:57;;;;;;;;;7.00;7.00;;;;;11.01;46.95;66353.72;4977959;28;45861;-85
2023/03/06 17:49:24;;;;;;;;;7.00;7.00;;;;;11.05;46.91;66421.22;4976891;28;48421;-86
2023/03/06 17:51:52;;;;;;;;;8.00;8.00;;;;;11.01;47.33;66388.09;4976882;28;45496;-85
2023/03/06 17:54:18;;;;;;;;;5.00;4.33;;;;;10.92;46.94;66380.34;4976237;28;45408;-86
2023/03/06 17:56:44;;;;;;;;;8.00;8.00;;;;;11.29;47.05;66398.66;4995157;28;45513;-86
2023/03/06 17:59:09;;;;;;;;;7.00;7.00;;;;;10.87;46.91;66337.56;4991833;28;46297;-86
2023/03/06 18:01:35;;;;;;;;;11.67;9.00;;;;;11.07;46.82;66391.78;4975910;28;45522;-87
2023/03/06 18:04:02;;;;;;;;;6.67;6.00;;;;;11.29;46.69;66432.47;4988805;28;45486;-92
2023/03/06 18:06:31;;;;;;;;;7.67;7.33;;;;;11.25;47.06;66457.53;4978951;28;45365;-93
2023/03/06 18:08:57;;;;;;;;;12.33;9.67;;;;;11.26;46.78;66463.97;4993651;28;46307;-93
2023/03/06 18:11:23;;;;;;;;;11.67;8.33;;;;;10.79;47.08;66421.44;4994484;28;45434;-93
2023/03/06 18:13:49;;;;;;;;;8.00;8.00;;;;;10.86;46.96;66423.66;4995701;28;45565;-93
2023/03/06 18:16:17;;;;;;;;;11.33;9.33;;;;;11.21;47.06;66524.31;4996374;28;45292;-92
2023/03/06 18:18:43;;;;;;;;;11.33;11.33;;;;;11.08;47.04;66443.78;4984921;28;46207;-92
2023/03/06 18:21:11;;;;;;;;;10.00;7.00;;;;;11.24;47.27;66448.44;4984239;28;45825;-92
2023/03/06 18:23:38;;;;;;;;;10.33;9.00;;;;;10.23;46.69;66400.78;5000686;28;45535;-93
2023/03/06 18:26:10;;;;;;;;;10.00;10.00;;;;;11.03;47.17;66398.34;4981393;28;45352;-92
2023/03/06 18:28:36;;;;;;;;;11.00;10.67;;;;;11.06;47.25;66417.66;4998362;28;46220;-92
2023/03/06 18:31:07;;;;;;;;;9.33;7.67;;;;;10.20;46.80;66394.66;4998335;28;45508;-92
2023/03/06 18:33:32;;;;;;;;;7.67;6.00;;;;;10.90;47.11;66404.47;4980646;28;45787;-92
2023/03/06 18:36:02;;;;;;;;;11.67;11.67;;;;;11.21;46.95;66476.72;4998899;28;45445;-93
2023/03/06 18:38:27;;;;;;;;;9.67;9.67;;;;;10.06;46.99;66387.00;4981469;28;48077;-95
2023/03/06 18:40:53;;;;;;;;;11.00;7.00;;;;;9.88;47.03;66371.50;4996146;28;45970;-94
2023/03/06 18:43:18;;;;;;;;;9.67;9.67;;;;;11.20;46.75;66562.84;4998046;28;45479;-95
2023/03/06 18:45:52;;;;;;;;;12.00;10.33;;;;;10.59;46.82;66440.63;4999451;28;45496;-94
2023/03/06 18:48:18;;;;;;;;;9.33;8.33;;;;;10.18;46.92;66416.13;4976358;28;48324;-93
2023/03/06 18:50:43;;;;;;;;;14.67;9.00;;;;;11.12;46.81;66503.94;4998585;28;45920;-94
2023/03/06 18:53:08;;;;;;;;;11.00;11.00;;;;;10.87;46.38;66512.63;4982603;28;45324;-94
2023/03/06 18:55:34;;;;;;;;;14.33;12.00;;;;;10.80;46.48;66507.19;5000600;28;45510;-94
2023/03/06 18:57:59;;;;;;;;;10.33;9.00;;;;;10.84;46.79;66516.50;5000981;28;46251;-94
2023/03/06 19:00:24;;;;;;;;;16.67;12.67;;;;;10.30;46.64;66527.75;4981762;28;45459;-94
2023/03/06 19:02:50;;;;;;;;;10.67;9.33;;;;;10.29;46.44;66439.41;4982652;28;45367;-96
2023/03/06 19:05:16;;;;;;;;;13.67;11.67;;;;;11.03;46.51;66540.53;4998291;28;45356;-95
2023/03/06 19:07:41;;;;;;;;;10.67;10.67;;;;;10.25;46.15;66545.69;4981886;28;47078;-94
2023/03/06 19:10:07;;;;;;;;;11.00;10.00;;;;;10.57;46.79;66571.03;4999603;28;45260;-94
2023/03/06 19:12:34;;;;;;;;;14.00;11.00;;;;;10.02;46.80;66551.38;4980481;28;45436;-94
2023/03/06 19:15:01;;;;;;;;;16.00;13.00;;;;;9.62;46.53;66537.31;4980640;28;45561;-90
2023/03/06 19:17:26;;;;;;;;;16.67;13.67;;;;;9.89;46.43;66592.31;4996687;28;45498;-89
2023/03/06 19:19:53;;;;;;;;;11.67;11.33;;;;;10.32;46.28;66503.06;4999333;28;45261;-93
2023/03/06 19:22:19;;;;;;;;;13.00;11.00;;;;;11.01;46.24;66668.41;4997571;28;45463;-90
2023/03/06 19:24:45;;;;;;;;;14.00;13.33;;;;;10.49;46.04;66599.34;4980199;28;45466;-90
2023/03/06 19:27:11;;;;;;;;;12.33;12.33;;;;;11.02;46.45;66645.75;4978206;28;48548;-89
2023/03/06 19:29:37;;;;;;;;;16.67;13.00;;;;;10.15;46.38;66520.94;4979410;28;45548;-91
2023/03/06 19:32:02;;;;;;;;;12.00;12.00;;;;;10.98;46.14;66715.16;4979984;28;45478;-89
2023/03/06 19:34:28;;;;;;;;;16.33;14.00;;;;;10.78;46.45;66687.84;4977897;28;45552;-90
2023/03/06 19:36:53;;;;;;;;;15.33;14.33;;;;;9.78;46.60;66555.84;4997855;28;46335;-92
2023/03/06 19:39:18;;;;;;;;;14.00;14.00;;;;;10.20;46.37;66693.09;4978741;28;45325;-90
2023/03/06 19:41:47;;;;;;;;;11.33;11.33;;;;;10.54;46.40;66607.19;4976789;28;45452;-93
2023/03/06 19:44:13;;;;;;;;;12.00;11.00;;;;;10.42;46.40;66681.06;4996143;28;45523;-94
2023/03/06 19:46:39;;;;;;;;;12.00;12.00;;;;;8.98;46.05;66510.41;4982410;28;47934;-93
2023/03/06 19:49:10;;;;;;;;;17.33;14.00;;;;;9.28;46.03;66478.63;4982296;28;45563;-96
2023/03/06 19:51:36;;;;;;;;;8.33;8.33;;;;;10.89;45.82;66721.19;4982864;28;45545;-95
2023/03/06 19:54:07;;;;;;;;;11.67;9.67;;;;;8.95;46.43;66625.53;5012372;28;45393;-96
2023/03/06 19:56:35;;;;;;;;;11.00;9.67;;;;;8.85;46.26;66569.16;5003104;28;47233;-96
2023/03/06 19:59:01;;;;;;;;;11.67;11.67;;;;;8.70;46.24;66544.44;4997355;28;45267;-96
2023/03/06 20:06:27;;;;;;;;;9.00;9.00;;;;;10.24;46.19;66818.66;5003682;28;45774;-91
2023/03/06 20:08:53;;;;;;;;;10.00;9.00;;;;;9.77;46.07;66694.00;4986623;28;45505;-91
2023/03/06 20:11:31;;;;;;;;;10.33;9.00;;;;;10.71;46.08;66827.19;4984754;28;45382;-91
2023/03/06 20:14:05;;;;;;;;;15.00;12.00;;;;;10.27;46.28;66719.13;4984011;28;45573;-96
2023/03/06 20:16:31;;;;;;;;;12.33;9.00;;;;;9.68;46.39;66697.31;4987721;28;47617;-96
2023/03/06 20:18:59;;;;;;;;;7.67;5.67;;;;;8.43;46.27;66675.00;4976847;28;45585;-95
2023/03/06 20:21:26;;;;;;;;;12.67;11.00;;;;;8.76;46.11;66619.34;4984664;28;45440;-96
2023/03/06 20:23:53;;;;;;;;;12.67;11.00;;;;;8.69;46.22;66545.34;4985347;28;45830;-95
2023/03/06 20:26:22;;;;;;;;;11.67;11.00;;;;;10.62;46.27;66827.31;4980094;28;47019;-96
2023/03/06 20:28:48;;;;;;;;;13.00;11.00;;;;;9.35;46.41;66683.94;4985985;28;46154;-95
2023/03/06 20:31:18;;;;;;;;;8.33;6.33;;;;;8.59;46.53;66621.84;4977306;28;45514;-96
2023/03/06 20:39:54;;;;;;;;;9.33;8.67;;;;;10.66;47.03;66747.38;4995211;28;45750;-91
2023/03/06 20:42:29;;;;;;;;;13.00;10.00;;;;;8.70;46.91;66501.72;4989945;28;45492;-92
2023/03/06 20:45:04;;;;;;;;;11.67;10.67;;;;;9.73;46.81;66650.91;5000962;22;45463;-95
2023/03/06 20:47:29;;;;;;;;;13.00;13.00;;;;;10.11;46.77;66788.28;4962124;28;47996;-91
2023/03/06 20:49:55;;;;;;;;;12.00;10.33;;;;;10.30;46.98;66680.94;4939001;28;45658;-91
2023/03/06 20:52:20;;;;;;;;;13.00;12.00;;;;;10.22;47.23;66647.31;4947010;28;45537;-91
2023/03/06 20:54:46;;;;;;;;;12.33;11.67;;;;;9.45;47.23;66729.25;4938998;28;45403;-90
2023/03/06 20:57:11;;;;;;;;;11.33;11.33;;;;;9.94;46.97;66661.47;4951756;28;46172;-89
2023/03/06 20:59:36;;;;;;;;;12.00;11.00;;;;;10.18;47.22;66672.28;4960501;28;45534;-88
2023/03/06 21:02:02;;;;;;;;;8.00;5.00;;;;;9.78;47.18;66666.69;4940935;28;45293;-87
2023/03/06 21:04:28;;;;;;;;;13.00;10.00;;;;;10.65;47.45;66698.63;4975271;28;45451;-96
2023/03/06 21:06:53;;;;;;;;;10.67;10.67;;;;;10.27;47.59;66674.22;4956463;28;47632;-90
2023/03/06 21:09:19;;;;;;;;;12.67;12.00;;;;;9.69;47.26;66595.56;4964585;28;45760;-88
2023/03/06 21:11:45;;;;;;;;;13.00;10.00;;;;;10.54;47.35;66697.63;4955122;28;45582;-88
2023/03/06 21:14:12;;;;;;;;;11.67;11.67;;;;;10.62;47.70;66634.94;4955353;28;45419;-88
2023/03/06 21:16:38;;;;;;;;;15.67;11.00;;;;;10.61;47.97;66638.50;4954951;28;45589;-88
2023/03/06 21:19:04;;;;;;;;;11.67;11.00;;;;;9.82;47.95;66631.72;4953684;28;45557;-89
2023/03/06 21:21:32;;;;;;;;;14.33;11.33;;;;;10.61;47.72;66617.38;4957198;28;45348;-88
2023/03/06 21:23:58;;;;;;;;;12.00;12.00;;;;;10.46;47.87;66600.56;4952513;28;45409;-87
2023/03/06 21:26:26;;;;;;;;;13.33;11.33;;;;;10.20;48.13;66568.41;4947964;28;46184;-87
2023/03/06 21:28:52;;;;;;;;;10.33;10.33;;;;;9.55;47.95;66508.13;4954250;28;45613;-87
2023/03/06 21:31:20;;;;;;;;;12.00;12.00;;;;;10.59;48.46;66602.41;4947743;28;45385;-86
2023/03/06 21:33:48;;;;;;;;;11.33;11.00;;;;;10.56;48.31;66548.75;4954150;28;45489;-87
2023/03/06 21:36:14;;;;;;;;;13.00;10.00;;;;;10.11;48.54;66477.28;4954616;28;45553;-87
2023/03/06 21:38:42;;;;;;;;;12.67;10.33;;;;;10.42;48.83;66535.16;4952184;28;45559;-88
2023/03/06 21:41:17;;;;;;;;;10.67;10.67;;;;;10.53;48.51;66537.31;4948070;28;45421;-88
2023/03/06 21:43:42;;;;;;;;;11.33;9.33;;;;;9.65;48.70;66408.88;4953267;28;45550;-88
2023/03/06 21:46:08;;;;;;;;;12.00;10.33;;;;;9.97;48.95;66428.84;4967055;28;46290;-88
2023/03/06 21:48:34;;;;;;;;;13.33;11.67;;;;;10.29;48.92;66442.06;4983400;28;45914;-88